sensor_id;sensor_type;location;lat;lon;timestamp;pressure;altitude;pressure_sealevel;temperature;humidity
53440;BME280;39333;47.044;15.080;2023-01-30T00:00:01;96541.63;;;-2.70;76.61
53440;BME280;39333;47.044;15.080;2023-01-30T00:02:29;96530.53;;;-2.80;75.87
53440;BME280;39333;47.044;15.080;2023-01-30T00:04:56;96536.56;;;-2.80;76.10
53440;BME280;39333;47.044;15.080;2023-01-30T00:07:23;96541.44;;;-2.77;76.22
53440;BME280;39333;47.044;15.080;2023-01-30T00:09:50;96540.47;;;-2.76;76.31
53440;BME280;39333;47.044;15.080;2023-01-30T00:12:17;96535.28;;;-2.76;76.33
53440;BME280;39333;47.044;15.080;2023-01-30T00:14:44;96523.88;;;-2.83;76.01
53440;BME280;39333;47.044;15.080;2023-01-30T00:17:11;96524.78;;;-2.92;75.90
53440;BME280;39333;47.044;15.080;2023-01-30T00:19:38;96516.13;;;-3.01;75.93
53440;BME280;39333;47.044;15.080;2023-01-30T00:22:04;96516.94;;;-3.00;76.25
53440;BME280;39333;47.044;15.080;2023-01-30T00:24:31;96525.09;;;-3.13;75.36
53440;BME280;39333;47.044;15.080;2023-01-30T00:26:58;96509.84;;;-3.34;75.63
53440;BME280;39333;47.044;15.080;2023-01-30T00:29:25;96509.41;;;-3.29;76.55
53440;BME280;39333;47.044;15.080;2023-01-30T00:31:53;96503.94;;;-3.26;76.58
53440;BME280;39333;47.044;15.080;2023-01-30T00:34:20;96507.53;;;-3.19;76.75
53440;BME280;39333;47.044;15.080;2023-01-30T00:36:46;96510.28;;;-3.21;76.67
53440;BME280;39333;47.044;15.080;2023-01-30T00:39:31;96499.47;;;-3.16;76.68
53440;BME280;39333;47.044;15.080;2023-01-30T00:42:00;96499.84;;;-3.11;76.42
53440;BME280;39333;47.044;15.080;2023-01-30T00:44:46;96498.53;;;-3.07;76.41
53440;BME280;39333;47.044;15.080;2023-01-30T00:47:31;96500.66;;;-3.10;76.15
53440;BME280;39333;47.044;15.080;2023-01-30T00:49:58;96493.75;;;-3.20;75.99
53440;BME280;39333;47.044;15.080;2023-01-30T00:52:25;96497.84;;;-3.17;75.96
53440;BME280;39333;47.044;15.080;2023-01-30T00:54:51;96504.94;;;-3.37;74.99
53440;BME280;39333;47.044;15.080;2023-01-30T00:57:18;96499.47;;;-3.52;75.43
53440;BME280;39333;47.044;15.080;2023-01-30T00:59:45;96501.78;;;-3.48;76.15
53440;BME280;39333;47.044;15.080;2023-01-30T01:02:15;96502.59;;;-3.48;76.11
53440;BME280;39333;47.044;15.080;2023-01-30T01:04:41;96505.84;;;-3.46;76.09
53440;BME280;39333;47.044;15.080;2023-01-30T01:07:11;96499.25;;;-3.40;76.23
53440;BME280;39333;47.044;15.080;2023-01-30T01:09:38;96490.88;;;-3.34;76.45
53440;BME280;39333;47.044;15.080;2023-01-30T01:12:05;96488.13;;;-3.33;76.14
53440;BME280;39333;47.044;15.080;2023-01-30T01:14:32;96494.56;;;-3.55;74.45
53440;BME280;39333;47.044;15.080;2023-01-30T01:17:00;96486.16;;;-4.02;73.89
53440;BME280;39333;47.044;15.080;2023-01-30T01:19:26;96482.75;;;-4.02;75.66
53440;BME280;39333;47.044;15.080;2023-01-30T01:21:58;96485.31;;;-3.93;76.50
53440;BME280;39333;47.044;15.080;2023-01-30T01:24:25;96484.94;;;-3.80;76.71
53440;BME280;39333;47.044;15.080;2023-01-30T01:26:53;96472.72;;;-3.70;76.73
53440;BME280;39333;47.044;15.080;2023-01-30T01:29:20;96473.63;;;-3.61;76.80
53440;BME280;39333;47.044;15.080;2023-01-30T01:31:47;96477.34;;;-3.64;76.27
53440;BME280;39333;47.044;15.080;2023-01-30T01:34:14;96470.22;;;-3.62;76.05
53440;BME280;39333;47.044;15.080;2023-01-30T01:36:42;96466.88;;;-3.72;75.79
53440;BME280;39333;47.044;15.080;2023-01-30T01:39:25;96465.19;;;-3.63;76.26
53440;BME280;39333;47.044;15.080;2023-01-30T01:42:11;96466.53;;;-3.59;75.99
53440;BME280;39333;47.044;15.080;2023-01-30T01:45:12;96466.53;;;-3.59;75.79
53440;BME280;39333;47.044;15.080;2023-01-30T01:50:35;96463.56;;;-3.64;75.89
53440;BME280;39333;47.044;15.080;2023-01-30T01:53:05;96451.28;;;-3.62;75.82
53440;BME280;39333;47.044;15.080;2023-01-30T01:55:32;96446.25;;;-3.64;75.70
53440;BME280;39333;47.044;15.080;2023-01-30T01:58:14;96443.56;;;-4.35;74.10
53440;BME280;39333;47.044;15.080;2023-01-30T02:00:42;96446.94;;;-4.25;76.09
53440;BME280;39333;47.044;15.080;2023-01-30T02:03:12;96446.66;;;-4.04;76.51
53440;BME280;39333;47.044;15.080;2023-01-30T02:05:49;96439.53;;;-4.02;76.30
53440;BME280;39333;47.044;15.080;2023-01-30T02:11:32;96445.72;;;-3.85;76.13
53440;BME280;39333;47.044;15.080;2023-01-30T02:14:03;96433.72;;;-3.86;75.80
53440;BME280;39333;47.044;15.080;2023-01-30T02:16:31;96432.59;;;-3.83;75.76
53440;BME280;39333;47.044;15.080;2023-01-30T02:18:58;96434.91;;;-3.80;75.89
53440;BME280;39333;47.044;15.080;2023-01-30T02:48:26;96404.09;;;-4.01;75.55
53440;BME280;39333;47.044;15.080;2023-01-30T02:51:04;96409.09;;;-4.08;75.03
53440;BME280;39333;47.044;15.080;2023-01-30T02:53:33;96400.47;;;-4.26;74.89
53440;BME280;39333;47.044;15.080;2023-01-30T02:56:02;96398.84;;;-4.27;75.36
53440;BME280;39333;47.044;15.080;2023-01-30T02:58:35;96404.06;;;-4.37;75.47
53440;BME280;39333;47.044;15.080;2023-01-30T03:01:39;96405.47;;;-4.42;74.77
53440;BME280;39333;47.044;15.080;2023-01-30T03:15:09;96390.63;;;-4.40;75.17
53440;BME280;39333;47.044;15.080;2023-01-30T03:17:44;96398.66;;;-4.43;75.19
53440;BME280;39333;47.044;15.080;2023-01-30T03:20:18;96396.66;;;-4.49;75.36
53440;BME280;39333;47.044;15.080;2023-01-30T03:22:45;96390.22;;;-4.45;75.67
53440;BME280;39333;47.044;15.080;2023-01-30T03:25:18;96390.97;;;-4.35;75.83
53440;BME280;39333;47.044;15.080;2023-01-30T03:27:49;96384.16;;;-4.36;75.54
53440;BME280;39333;47.044;15.080;2023-01-30T03:30:17;96385.88;;;-4.45;75.50
53440;BME280;39333;47.044;15.080;2023-01-30T03:32:45;96395.13;;;-4.42;75.52
53440;BME280;39333;47.044;15.080;2023-01-30T03:35:13;96379.94;;;-4.37;75.92
53440;BME280;39333;47.044;15.080;2023-01-30T03:37:44;96377.69;;;-4.40;75.47
53440;BME280;39333;47.044;15.080;2023-01-30T03:40:13;96365.03;;;-4.43;75.28
53440;BME280;39333;47.044;15.080;2023-01-30T03:42:40;96371.44;;;-4.47;75.06
53440;BME280;39333;47.044;15.080;2023-01-30T03:45:09;96361.97;;;-4.56;75.44
53440;BME280;39333;47.044;15.080;2023-01-30T03:47:36;96374.31;;;-4.50;75.47
53440;BME280;39333;47.044;15.080;2023-01-30T03:50:05;96372.41;;;-4.48;75.60
53440;BME280;39333;47.044;15.080;2023-01-30T03:52:36;96372.78;;;-4.43;75.71
53440;BME280;39333;47.044;15.080;2023-01-30T03:55:09;96368.19;;;-4.49;75.43
53440;BME280;39333;47.044;15.080;2023-01-30T03:57:36;96356.34;;;-4.52;75.29
53440;BME280;39333;47.044;15.080;2023-01-30T04:00:03;96348.97;;;-4.47;75.71
53440;BME280;39333;47.044;15.080;2023-01-30T04:02:41;96342.31;;;-4.49;75.42
53440;BME280;39333;47.044;15.080;2023-01-30T04:05:11;96351.13;;;-4.42;75.55
53440;BME280;39333;47.044;15.080;2023-01-30T04:07:43;96347.06;;;-4.45;74.75
53440;BME280;39333;47.044;15.080;2023-01-30T04:10:11;96336.56;;;-4.43;75.07
53440;BME280;39333;47.044;15.080;2023-01-30T04:12:41;96338.19;;;-4.42;75.29
53440;BME280;39333;47.044;15.080;2023-01-30T04:15:10;96334.78;;;-4.43;75.16
53440;BME280;39333;47.044;15.080;2023-01-30T04:18:04;96336.03;;;-4.47;74.66
53440;BME280;39333;47.044;15.080;2023-01-30T04:21:00;96329.19;;;-4.66;74.91
53440;BME280;39333;47.044;15.080;2023-01-30T04:23:33;96330.59;;;-4.53;75.75
53440;BME280;39333;47.044;15.080;2023-01-30T04:26:02;96330.03;;;-4.47;75.48
53440;BME280;39333;47.044;15.080;2023-01-30T04:28:31;96329.47;;;-4.41;75.37
53440;BME280;39333;47.044;15.080;2023-01-30T04:31:01;96320.06;;;-4.42;74.90
53440;BME280;39333;47.044;15.080;2023-01-30T04:33:34;96316.84;;;-4.54;74.51
53440;BME280;39333;47.044;15.080;2023-01-30T04:36:05;96314.59;;;-4.57;74.56
53440;BME280;39333;47.044;15.080;2023-01-30T04:38:33;96312.97;;;-4.58;74.71
53440;BME280;39333;47.044;15.080;2023-01-30T04:41:04;96315.53;;;-4.58;75.04
53440;BME280;39333;47.044;15.080;2023-01-30T04:43:33;96307.19;;;-4.52;75.03
53440;BME280;39333;47.044;15.080;2023-01-30T04:46:29;96306.97;;;-4.59;74.67
53440;BME280;39333;47.044;15.080;2023-01-30T04:48:56;96313.09;;;-4.60;74.68
53440;BME280;39333;47.044;15.080;2023-01-30T04:51:24;96304.25;;;-4.57;75.01
53440;BME280;39333;47.044;15.080;2023-01-30T04:53:51;96308.31;;;-4.54;75.01
53440;BME280;39333;47.044;15.080;2023-01-30T04:56:18;96313.22;;;-4.79;73.74
53440;BME280;39333;47.044;15.080;2023-01-30T04:58:47;96295.91;;;-4.78;74.58
53440;BME280;39333;47.044;15.080;2023-01-30T05:01:21;96299.47;;;-4.79;74.76
53440;BME280;39333;47.044;15.080;2023-01-30T05:03:52;96286.69;;;-4.81;74.70
53440;BME280;39333;47.044;15.080;2023-01-30T05:06:20;96300.53;;;-4.72;74.69
53440;BME280;39333;47.044;15.080;2023-01-30T05:08:52;96298.25;;;-4.85;74.57
53440;BME280;39333;47.044;15.080;2023-01-30T05:11:20;96297.63;;;-4.87;74.63
53440;BME280;39333;47.044;15.080;2023-01-30T05:13:47;96290.72;;;-4.96;74.42
53440;BME280;39333;47.044;15.080;2023-01-30T05:16:15;96300.53;;;-5.00;75.02
53440;BME280;39333;47.044;15.080;2023-01-30T05:18:44;96287.69;;;-4.91;75.13
53440;BME280;39333;47.044;15.080;2023-01-30T05:21:14;96283.38;;;-5.01;74.69
53440;BME280;39333;47.044;15.080;2023-01-30T05:23:41;96284.59;;;-4.95;74.94
53440;BME280;39333;47.044;15.080;2023-01-30T05:26:09;96283.19;;;-4.89;74.84
53440;BME280;39333;47.044;15.080;2023-01-30T05:28:36;96273.66;;;-4.89;74.97
53440;BME280;39333;47.044;15.080;2023-01-30T05:31:08;96275.81;;;-4.84;74.79
53440;BME280;39333;47.044;15.080;2023-01-30T05:33:36;96268.72;;;-4.82;74.85
53440;BME280;39333;47.044;15.080;2023-01-30T05:36:04;96274.03;;;-4.84;74.71
53440;BME280;39333;47.044;15.080;2023-01-30T05:38:32;96271.81;;;-4.79;74.83
53440;BME280;39333;47.044;15.080;2023-01-30T05:41:03;96267.00;;;-4.91;73.95
53440;BME280;39333;47.044;15.080;2023-01-30T05:43:31;96261.31;;;-4.95;74.52
53440;BME280;39333;47.044;15.080;2023-01-30T05:46:02;96261.03;;;-4.92;74.50
53440;BME280;39333;47.044;15.080;2023-01-30T05:48:31;96252.06;;;-4.98;74.29
53440;BME280;39333;47.044;15.080;2023-01-30T05:50:58;96252.75;;;-4.96;74.73
53440;BME280;39333;47.044;15.080;2023-01-30T05:53:28;96249.91;;;-5.02;74.51
53440;BME280;39333;47.044;15.080;2023-01-30T05:55:56;96243.13;;;-5.03;74.76
53440;BME280;39333;47.044;15.080;2023-01-30T05:58:25;96240.25;;;-5.00;75.10
53440;BME280;39333;47.044;15.080;2023-01-30T06:00:52;96232.47;;;-5.00;74.97
53440;BME280;39333;47.044;15.080;2023-01-30T06:03:19;96231.91;;;-4.94;75.27
53440;BME280;39333;47.044;15.080;2023-01-30T06:05:46;96235.88;;;-5.00;74.87
53440;BME280;39333;47.044;15.080;2023-01-30T06:08:13;96244.44;;;-4.99;75.10
53440;BME280;39333;47.044;15.080;2023-01-30T06:10:40;96250.28;;;-4.97;74.99
53440;BME280;39333;47.044;15.080;2023-01-30T06:13:07;96244.75;;;-5.02;74.92
53440;BME280;39333;47.044;15.080;2023-01-30T06:15:37;96251.88;;;-5.14;74.65
53440;BME280;39333;47.044;15.080;2023-01-30T06:18:04;96242.28;;;-5.21;75.48
53440;BME280;39333;47.044;15.080;2023-01-30T06:20:31;96238.09;;;-5.05;75.78
53440;BME280;39333;47.044;15.080;2023-01-30T06:22:58;96236.69;;;-4.99;75.26
53440;BME280;39333;47.044;15.080;2023-01-30T06:25:24;96230.00;;;-4.92;75.37
53440;BME280;39333;47.044;15.080;2023-01-30T06:27:52;96239.66;;;-4.94;75.09
53440;BME280;39333;47.044;15.080;2023-01-30T06:30:19;96250.53;;;-4.90;75.19
53440;BME280;39333;47.044;15.080;2023-01-30T06:32:49;96242.63;;;-4.89;75.36
53440;BME280;39333;47.044;15.080;2023-01-30T06:35:17;96254.91;;;-4.91;75.05
53440;BME280;39333;47.044;15.080;2023-01-30T06:37:44;96255.75;;;-5.00;75.14
53440;BME280;39333;47.044;15.080;2023-01-30T06:40:12;96261.69;;;-4.90;75.36
53440;BME280;39333;47.044;15.080;2023-01-30T06:42:46;96250.25;;;-4.87;75.29
53440;BME280;39333;47.044;15.080;2023-01-30T06:45:17;96261.63;;;-4.80;75.28
53440;BME280;39333;47.044;15.080;2023-01-30T06:47:52;96264.34;;;-4.82;74.93
53440;BME280;39333;47.044;15.080;2023-01-30T06:50:22;96257.28;;;-4.80;75.18
53440;BME280;39333;47.044;15.080;2023-01-30T06:52:50;96260.75;;;-4.71;75.50
53440;BME280;39333;47.044;15.080;2023-01-30T06:55:19;96253.34;;;-4.66;75.34
53440;BME280;39333;47.044;15.080;2023-01-30T06:57:47;96256.47;;;-4.63;75.19
53440;BME280;39333;47.044;15.080;2023-01-30T07:00:19;96243.75;;;-4.74;75.45
53440;BME280;39333;47.044;15.080;2023-01-30T07:02:46;96253.88;;;-4.63;75.72
53440;BME280;39333;47.044;15.080;2023-01-30T07:05:13;96261.59;;;-4.71;75.55
53440;BME280;39333;47.044;15.080;2023-01-30T07:07:39;96247.97;;;-4.73;75.78
53440;BME280;39333;47.044;15.080;2023-01-30T07:10:07;96279.81;;;-4.90;76.88
53440;BME280;39333;47.044;15.080;2023-01-30T07:12:35;96257.09;;;-4.96;77.59
53440;BME280;39333;47.044;15.080;2023-01-30T07:15:04;96252.53;;;-4.84;77.76
53440;BME280;39333;47.044;15.080;2023-01-30T07:17:32;96245.69;;;-4.76;78.29
53440;BME280;39333;47.044;15.080;2023-01-30T07:19:59;96241.38;;;-4.67;77.91
53440;BME280;39333;47.044;15.080;2023-01-30T07:22:26;96231.72;;;-4.65;77.98
53440;BME280;39333;47.044;15.080;2023-01-30T07:24:52;96232.47;;;-4.55;77.89
53440;BME280;39333;47.044;15.080;2023-01-30T07:27:19;96239.75;;;-4.50;78.23
53440;BME280;39333;47.044;15.080;2023-01-30T07:29:46;96235.19;;;-4.56;78.66
53440;BME280;39333;47.044;15.080;2023-01-30T07:32:16;96229.34;;;-4.41;78.53
53440;BME280;39333;47.044;15.080;2023-01-30T07:34:47;96238.66;;;-4.30;78.45
53440;BME280;39333;47.044;15.080;2023-01-30T07:37:14;96226.00;;;-4.33;78.74
53440;BME280;39333;47.044;15.080;2023-01-30T07:39:41;96214.00;;;-4.16;79.12
53440;BME280;39333;47.044;15.080;2023-01-30T07:42:08;96206.47;;;-4.02;78.82
53440;BME280;39333;47.044;15.080;2023-01-30T07:44:35;96225.78;;;-3.96;78.64
53440;BME280;39333;47.044;15.080;2023-01-30T07:47:02;96211.97;;;-4.05;78.70
53440;BME280;39333;47.044;15.080;2023-01-30T07:49:29;96200.19;;;-3.99;78.65
53440;BME280;39333;47.044;15.080;2023-01-30T07:51:56;96202.06;;;-3.83;78.57
53440;BME280;39333;47.044;15.080;2023-01-30T07:54:23;96186.88;;;-3.78;78.16
53440;BME280;39333;47.044;15.080;2023-01-30T07:56:50;96188.50;;;-3.77;78.42
53440;BME280;39333;47.044;15.080;2023-01-30T07:59:16;96197.63;;;-3.65;78.41
53440;BME280;39333;47.044;15.080;2023-01-30T08:01:43;96191.94;;;-3.69;78.03
53440;BME280;39333;47.044;15.080;2023-01-30T08:04:10;96190.22;;;-3.60;78.32
53440;BME280;39333;47.044;15.080;2023-01-30T08:06:38;96186.03;;;-3.53;77.78
53440;BME280;39333;47.044;15.080;2023-01-30T08:09:05;96179.63;;;-3.41;77.96
53440;BME280;39333;47.044;15.080;2023-01-30T08:11:33;96183.84;;;-3.32;77.50
53440;BME280;39333;47.044;15.080;2023-01-30T08:14:00;96162.00;;;-3.21;77.53
53440;BME280;39333;47.044;15.080;2023-01-30T08:16:27;96167.19;;;-3.21;77.60
53440;BME280;39333;47.044;15.080;2023-01-30T08:18:54;96174.16;;;-3.22;78.12
53440;BME280;39333;47.044;15.080;2023-01-30T08:21:21;96154.72;;;-3.18;78.28
53440;BME280;39333;47.044;15.080;2023-01-30T08:23:48;96157.97;;;-3.07;78.02
53440;BME280;39333;47.044;15.080;2023-01-30T08:26:15;96148.75;;;-3.10;78.49
53440;BME280;39333;47.044;15.080;2023-01-30T08:28:42;96159.16;;;-2.86;78.72
53440;BME280;39333;47.044;15.080;2023-01-30T08:31:10;96151.72;;;-2.64;78.57
53440;BME280;39333;47.044;15.080;2023-01-30T08:33:38;96154.16;;;-2.30;78.33
53440;BME280;39333;47.044;15.080;2023-01-30T08:36:05;96148.91;;;-1.98;77.11
53440;BME280;39333;47.044;15.080;2023-01-30T08:38:32;96142.97;;;-1.67;76.41
53440;BME280;39333;47.044;15.080;2023-01-30T08:40:59;96141.19;;;-1.28;76.48
53440;BME280;39333;47.044;15.080;2023-01-30T08:43:26;96131.31;;;-1.10;74.91
53440;BME280;39333;47.044;15.080;2023-01-30T08:45:54;96137.31;;;-1.01;74.92
53440;BME280;39333;47.044;15.080;2023-01-30T08:48:22;96122.59;;;-0.94;74.62
53440;BME280;39333;47.044;15.080;2023-01-30T08:50:53;96114.75;;;-0.86;74.41
53440;BME280;39333;47.044;15.080;2023-01-30T08:53:20;96117.28;;;-0.78;74.17
53440;BME280;39333;47.044;15.080;2023-01-30T08:55:51;96137.59;;;-0.73;73.59
53440;BME280;39333;47.044;15.080;2023-01-30T08:58:19;96120.44;;;-0.82;74.12
53440;BME280;39333;47.044;15.080;2023-01-30T09:00:47;96111.66;;;-0.81;74.09
53440;BME280;39333;47.044;15.080;2023-01-30T09:03:16;96118.22;;;-0.93;74.64
53440;BME280;39333;47.044;15.080;2023-01-30T09:05:44;96102.94;;;-0.96;74.69
53440;BME280;39333;47.044;15.080;2023-01-30T09:08:11;96085.25;;;-1.01;75.27
53440;BME280;39333;47.044;15.080;2023-01-30T09:10:38;96100.59;;;-0.83;75.82
53440;BME280;39333;47.044;15.080;2023-01-30T09:13:08;96098.09;;;-0.54;76.32
53440;BME280;39333;47.044;15.080;2023-01-30T09:15:35;96101.75;;;-0.48;75.27
53440;BME280;39333;47.044;15.080;2023-01-30T09:18:02;96099.28;;;-0.42;74.57
53440;BME280;39333;47.044;15.080;2023-01-30T09:20:30;96088.16;;;-0.36;74.19
53440;BME280;39333;47.044;15.080;2023-01-30T09:22:58;96078.00;;;-0.30;74.71
53440;BME280;39333;47.044;15.080;2023-01-30T09:25:25;96093.94;;;-0.11;75.20
53440;BME280;39333;47.044;15.080;2023-01-30T09:27:52;96094.22;;;0.09;74.36
53440;BME280;39333;47.044;15.080;2023-01-30T09:30:19;96100.31;;;0.02;73.89
53440;BME280;39333;47.044;15.080;2023-01-30T09:32:47;96086.91;;;0.05;73.92
53440;BME280;39333;47.044;15.080;2023-01-30T09:35:14;96066.81;;;0.13;74.03
53440;BME280;39333;47.044;15.080;2023-01-30T09:37:52;96079.72;;;0.36;74.62
53440;BME280;39333;47.044;15.080;2023-01-30T09:40:22;96079.28;;;0.68;73.60
53440;BME280;39333;47.044;15.080;2023-01-30T09:45:43;96067.91;;;0.91;71.06
53440;BME280;39333;47.044;15.080;2023-01-30T09:48:52;96064.13;;;0.93;70.38
53440;BME280;39333;47.044;15.080;2023-01-30T09:56:19;96028.50;;;1.07;70.06
53440;BME280;39333;47.044;15.080;2023-01-30T09:58:53;96028.03;;;0.97;70.98
53440;BME280;39333;47.044;15.080;2023-01-30T10:04:20;96018.41;;;1.25;69.77
53440;BME280;39333;47.044;15.080;2023-01-30T10:07:04;96014.16;;;1.46;70.42
53440;BME280;39333;47.044;15.080;2023-01-30T10:15:18;96019.13;;;2.03;69.42
53440;BME280;39333;47.044;15.080;2023-01-30T10:21:54;96003.31;;;2.11;68.91
53440;BME280;39333;47.044;15.080;2023-01-30T10:27:15;95991.69;;;2.27;69.00
53440;BME280;39333;47.044;15.080;2023-01-30T10:29:48;96002.56;;;2.30;68.84
53440;BME280;39333;47.044;15.080;2023-01-30T10:32:46;96002.28;;;2.60;68.18
53440;BME280;39333;47.044;15.080;2023-01-30T10:35:22;95991.88;;;3.26;67.84
53440;BME280;39333;47.044;15.080;2023-01-30T10:38:01;95990.66;;;3.55;65.21
53440;BME280;39333;47.044;15.080;2023-01-30T10:40:40;95981.94;;;3.87;62.82
53440;BME280;39333;47.044;15.080;2023-01-30T10:49:14;95966.41;;;4.75;60.01
53440;BME280;39333;47.044;15.080;2023-01-30T10:52:32;95969.75;;;4.88;60.80
53440;BME280;39333;47.044;15.080;2023-01-30T10:57:26;95943.41;;;5.26;56.76
53440;BME280;39333;47.044;15.080;2023-01-30T11:00:00;95948.44;;;5.53;54.84
53440;BME280;39333;47.044;15.080;2023-01-30T11:05:25;95931.75;;;5.41;57.13
53440;BME280;39333;47.044;15.080;2023-01-30T11:07:53;95928.75;;;5.37;56.76
53440;BME280;39333;47.044;15.080;2023-01-30T11:10:26;95928.88;;;5.24;58.33
53440;BME280;39333;47.044;15.080;2023-01-30T11:13:17;95919.84;;;5.38;57.17
53440;BME280;39333;47.044;15.080;2023-01-30T11:15:48;95911.28;;;5.49;57.36
53440;BME280;39333;47.044;15.080;2023-01-30T11:18:17;95914.91;;;5.85;55.26
53440;BME280;39333;47.044;15.080;2023-01-30T11:21:27;95910.44;;;5.92;54.12
53440;BME280;39333;47.044;15.080;2023-01-30T11:24:30;95894.72;;;6.33;53.70
53440;BME280;39333;47.044;15.080;2023-01-30T11:27:23;95884.88;;;6.71;54.14
53440;BME280;39333;47.044;15.080;2023-01-30T11:30:02;95857.06;;;6.75;53.58
53440;BME280;39333;47.044;15.080;2023-01-30T11:32:30;95867.97;;;6.90;55.77
53440;BME280;39333;47.044;15.080;2023-01-30T11:37:39;95864.22;;;6.97;54.20
53440;BME280;39333;47.044;15.080;2023-01-30T11:40:26;95857.47;;;6.48;57.26
53440;BME280;39333;47.044;15.080;2023-01-30T11:43:14;95846.88;;;6.07;56.52
53440;BME280;39333;47.044;15.080;2023-01-30T11:45:47;95856.56;;;6.54;57.98
53440;BME280;39333;47.044;15.080;2023-01-30T11:48:20;95852.16;;;7.01;58.41
53440;BME280;39333;47.044;15.080;2023-01-30T11:51:09;95846.78;;;7.20;54.55
53440;BME280;39333;47.044;15.080;2023-01-30T11:53:48;95846.22;;;7.18;54.76
53440;BME280;39333;47.044;15.080;2023-01-30T11:56:21;95826.63;;;7.25;55.71
53440;BME280;39333;47.044;15.080;2023-01-30T11:58:57;95826.03;;;7.00;55.49
53440;BME280;39333;47.044;15.080;2023-01-30T12:01:30;95829.97;;;6.97;54.91
53440;BME280;39333;47.044;15.080;2023-01-30T12:03:59;95828.56;;;7.18;53.78
53440;BME280;39333;47.044;15.080;2023-01-30T12:06:35;95819.84;;;7.18;54.49
53440;BME280;39333;47.044;15.080;2023-01-30T12:09:03;95804.69;;;7.60;59.25
53440;BME280;39333;47.044;15.080;2023-01-30T12:14:42;95784.69;;;8.04;55.93
53440;BME280;39333;47.044;15.080;2023-01-30T12:17:20;95794.66;;;8.02;55.34
53440;BME280;39333;47.044;15.080;2023-01-30T12:19:56;95783.81;;;7.87;53.41
53440;BME280;39333;47.044;15.080;2023-01-30T12:22:40;95776.25;;;7.90;59.14
53440;BME280;39333;47.044;15.080;2023-01-30T12:25:24;95781.03;;;8.22;57.05
53440;BME280;39333;47.044;15.080;2023-01-30T12:27:58;95782.31;;;8.48;58.87
53440;BME280;39333;47.044;15.080;2023-01-30T12:30:48;95782.78;;;8.61;56.35
53440;BME280;39333;47.044;15.080;2023-01-30T12:33:17;95773.09;;;8.67;54.30
53440;BME280;39333;47.044;15.080;2023-01-30T12:35:55;95764.25;;;8.28;56.37
53440;BME280;39333;47.044;15.080;2023-01-30T12:41:14;95789.88;;;7.59;55.88
53440;BME280;39333;47.044;15.080;2023-01-30T13:02:30;95759.41;;;8.53;52.92
53440;BME280;39333;47.044;15.080;2023-01-30T13:05:43;95739.88;;;8.37;52.36
53440;BME280;39333;47.044;15.080;2023-01-30T13:11:07;95745.88;;;8.83;52.17
53440;BME280;39333;47.044;15.080;2023-01-30T13:13:41;95747.22;;;8.35;50.10
53440;BME280;39333;47.044;15.080;2023-01-30T13:18:46;95738.75;;;8.33;51.05
53440;BME280;39333;47.044;15.080;2023-01-30T13:21:36;95733.31;;;8.40;56.14
53440;BME280;39333;47.044;15.080;2023-01-30T13:26:40;95743.66;;;9.13;52.57
53440;BME280;39333;47.044;15.080;2023-01-30T13:31:49;95734.31;;;9.28;53.38
53440;BME280;39333;47.044;15.080;2023-01-30T13:34:39;95726.94;;;9.52;56.08
53440;BME280;39333;47.044;15.080;2023-01-30T13:37:19;95718.41;;;9.23;46.91
53440;BME280;39333;47.044;15.080;2023-01-30T13:39:53;95716.19;;;8.98;50.00
53440;BME280;39333;47.044;15.080;2023-01-30T13:45:04;95717.69;;;8.72;55.56
53440;BME280;39333;47.044;15.080;2023-01-30T13:53:13;95702.78;;;8.66;50.32
53440;BME280;39333;47.044;15.080;2023-01-30T13:55:56;95709.75;;;8.89;52.16
53440;BME280;39333;47.044;15.080;2023-01-30T14:00:56;95701.91;;;9.37;53.82
53440;BME280;39333;47.044;15.080;2023-01-30T14:03:26;95717.50;;;9.61;55.19
53440;BME280;39333;47.044;15.080;2023-01-30T14:05:59;95729.22;;;9.65;55.84
53440;BME280;39333;47.044;15.080;2023-01-30T14:08:29;95707.44;;;9.58;55.77
53440;BME280;39333;47.044;15.080;2023-01-30T14:10:58;95706.03;;;9.77;56.46
53440;BME280;39333;47.044;15.080;2023-01-30T14:13:26;95695.84;;;9.91;56.29
53440;BME280;39333;47.044;15.080;2023-01-30T14:15:59;95706.66;;;10.11;54.57
53440;BME280;39333;47.044;15.080;2023-01-30T14:18:31;95697.88;;;10.32;55.50
53440;BME280;39333;47.044;15.080;2023-01-30T14:21:14;95690.13;;;10.26;53.28
53440;BME280;39333;47.044;15.080;2023-01-30T14:24:02;95689.75;;;10.17;54.94
53440;BME280;39333;47.044;15.080;2023-01-30T14:32:34;95662.91;;;10.08;54.08
53440;BME280;39333;47.044;15.080;2023-01-30T14:35:20;95674.59;;;9.80;53.78
53440;BME280;39333;47.044;15.080;2023-01-30T14:37:49;95649.28;;;9.95;58.03
53440;BME280;39333;47.044;15.080;2023-01-30T14:45:49;95642.50;;;9.77;59.88
53440;BME280;39333;47.044;15.080;2023-01-30T14:57:01;95665.06;;;8.70;63.59
53440;BME280;39333;47.044;15.080;2023-01-30T14:59:36;95669.25;;;8.66;60.24
53440;BME280;39333;47.044;15.080;2023-01-30T15:04:44;95667.44;;;8.89;64.08
53440;BME280;39333;47.044;15.080;2023-01-30T15:09:49;95682.22;;;8.68;63.50
53440;BME280;39333;47.044;15.080;2023-01-30T15:15:00;95688.09;;;7.34;62.97
53440;BME280;39333;47.044;15.080;2023-01-30T15:20:10;95693.03;;;7.71;66.39
53440;BME280;39333;47.044;15.080;2023-01-30T15:25:17;95696.69;;;7.42;67.08
53440;BME280;39333;47.044;15.080;2023-01-30T15:31:00;95718.66;;;7.07;66.47
53440;BME280;39333;47.044;15.080;2023-01-30T15:33:29;95697.72;;;6.89;67.17
53440;BME280;39333;47.044;15.080;2023-01-30T15:35:59;95711.50;;;6.79;68.67
53440;BME280;39333;47.044;15.080;2023-01-30T15:38:32;95702.06;;;6.83;69.00
53440;BME280;39333;47.044;15.080;2023-01-30T15:41:04;95731.41;;;6.75;69.95
53440;BME280;39333;47.044;15.080;2023-01-30T15:43:52;95730.81;;;6.50;69.26
53440;BME280;39333;47.044;15.080;2023-01-30T15:49:34;95736.50;;;6.12;68.22
53440;BME280;39333;47.044;15.080;2023-01-30T15:52:12;95744.63;;;6.10;70.36
53440;BME280;39333;47.044;15.080;2023-01-30T15:54:40;95752.66;;;6.15;70.88
53440;BME280;39333;47.044;15.080;2023-01-30T15:57:16;95757.09;;;6.15;70.57
53440;BME280;39333;47.044;15.080;2023-01-30T15:59:46;95753.28;;;5.99;69.97
53440;BME280;39333;47.044;15.080;2023-01-30T16:02:42;95764.81;;;5.68;68.68